Time;durP1;ratioP1;P1;durP2;ratioP2;P2;SDS_P1;SDS_P2;PMS_P1;PMS_P2;Temp;Humidity;BMP_temperature;BMP_pressure;BME280_temperature;BME280_humidity;BME280_pressure;Samples;Min_cycle;Max_cycle;Signal;HPM_P1;HPM_P2
2023/09/06 00:01:29;;;;;;;5.63;3.75;;;15.40;99.90;;;;;;5012141;28;20227;-58
2023/09/06 00:03:56;;;;;;;6.28;3.55;;;15.40;99.90;;;;;;5012774;28;20302;-60
2023/09/06 00:06:23;;;;;;;3.83;3.30;;;15.40;99.90;;;;;;5012434;28;20262;-57
2023/09/06 00:08:50;;;;;;;4.18;3.10;;;15.30;99.90;;;;;;5012472;28;20207;-56
2023/09/06 00:11:18;;;;;;;5.32;3.53;;;15.20;99.90;;;;;;5013237;28;20207;-57
2023/09/06 00:13:46;;;;;;;5.57;3.72;;;15.20;99.90;;;;;;5012237;28;20214;-59
2023/09/06 00:16:13;;;;;;;3.78;3.45;;;15.20;99.90;;;;;;5012096;28;20262;-58
2023/09/06 00:18:39;;;;;;;4.75;3.47;;;15.20;99.90;;;;;;5012327;28;20269;-57
2023/09/06 00:21:06;;;;;;;4.23;3.30;;;15.10;99.90;;;;;;5012269;28;20291;-58
2023/09/06 00:23:33;;;;;;;3.57;3.27;;;15.10;99.90;;;;;;5011779;28;20211;-59
2023/09/06 00:26:00;;;;;;;3.67;3.30;;;15.10;99.90;;;;;;5012153;28;20281;-57
2023/09/06 00:28:27;;;;;;;3.95;3.22;;;15.10;99.90;;;;;;5012022;28;20214;-58
2023/09/06 00:30:56;;;;;;;4.13;3.40;;;15.10;99.90;;;;;;5011934;28;20207;-58
2023/09/06 00:33:26;;;;;;;7.03;3.30;;;15.00;99.90;;;;;;5011652;28;20601;-58
2023/09/06 00:35:53;;;;;;;5.27;3.33;;;15.10;99.90;;;;;;5012109;28;20227;-59
2023/09/06 00:38:20;;;;;;;5.93;3.53;;;15.00;99.90;;;;;;5011229;28;20495;-57
2023/09/06 00:40:51;;;;;;;4.87;3.27;;;14.90;99.90;;;;;;5011661;28;20234;-58
2023/09/06 00:43:18;;;;;;;4.40;3.63;;;14.70;99.90;;;;;;5011924;28;20227;-58
2023/09/06 00:45:48;;;;;;;3.90;3.33;;;14.60;99.90;;;;;;5012401;28;20314;-59
2023/09/06 00:48:19;;;;;;;6.53;3.30;;;14.60;99.90;;;;;;5011883;28;20218;-58
2023/09/06 00:50:50;;;;;;;5.30;3.53;;;14.60;99.90;;;;;;5011890;28;20653;-58
2023/09/06 00:53:18;;;;;;;4.97;3.50;;;14.60;99.90;;;;;;5012407;28;20309;-58
2023/09/06 00:55:45;;;;;;;6.03;3.73;;;14.50;99.90;;;;;;5012709;28;20238;-57
2023/09/06 00:58:15;;;;;;;4.90;3.43;;;14.50;99.90;;;;;;5012894;28;20210;-58
2023/09/06 01:00:42;;;;;;;4.63;3.40;;;14.40;99.90;;;;;;5011345;28;20302;-58
2023/09/06 01:03:08;;;;;;;5.97;3.60;;;14.40;99.90;;;;;;5011342;28;20206;-58
2023/09/06 01:05:45;;;;;;;4.33;3.37;;;14.40;99.90;;;;;;5011491;28;20309;-59
2023/09/06 01:08:18;;;;;;;4.77;3.60;;;14.40;99.90;;;;;;5011489;28;20210;-59
2023/09/06 01:10:45;;;;;;;6.23;3.60;;;14.40;99.90;;;;;;5011585;28;20298;-58
2023/09/06 01:13:12;;;;;;;3.57;3.27;;;14.30;99.90;;;;;;5011521;28;20214;-58
2023/09/06 01:15:43;;;;;;;6.07;3.80;;;14.30;99.90;;;;;;5011396;28;20238;-57
2023/09/06 01:18:10;;;;;;;6.60;4.03;;;14.20;99.90;;;;;;5011321;28;20538;-57
2023/09/06 01:20:43;;;;;;;4.47;3.60;;;14.20;99.90;;;;;;5010937;28;20265;-61
2023/09/06 01:23:36;;;;;;;5.30;3.60;;;14.20;99.90;;;;;;5011168;28;20207;-58
2023/09/06 01:26:05;;;;;;;6.90;3.90;;;14.10;99.90;;;;;;5007656;28;20229;-58
2023/09/06 01:28:32;;;;;;;7.03;3.77;;;14.10;99.90;;;;;;5011167;28;20211;-59
2023/09/06 01:31:00;;;;;;;4.93;3.40;;;14.20;99.90;;;;;;5011101;28;20209;-58
2023/09/06 01:33:27;;;;;;;6.77;3.73;;;14.20;99.90;;;;;;5002712;28;20227;-59
2023/09/06 01:35:55;;;;;;;3.47;3.17;;;14.20;99.90;;;;;;5011211;28;20261;-59
2023/09/06 01:38:22;;;;;;;6.47;3.80;;;14.20;99.90;;;;;;5011288;28;20217;-58
2023/09/06 01:40:49;;;;;;;5.17;3.90;;;14.10;99.90;;;;;;5011031;28;20203;-58
2023/09/06 01:43:17;;;;;;;4.33;3.50;;;14.10;99.90;;;;;;5010842;28;20211;-58
2023/09/06 01:45:45;;;;;;;6.03;3.33;;;14.10;99.90;;;;;;5011284;28;20235;-58
2023/09/06 01:48:12;;;;;;;3.87;3.47;;;14.10;99.90;;;;;;5011402;28;20211;-61
2023/09/06 01:50:39;;;;;;;4.90;3.80;;;14.10;99.90;;;;;;5014067;28;20210;-60
2023/09/06 01:53:05;;;;;;;3.90;3.50;;;14.10;99.90;;;;;;5015030;28;20230;-57
2023/09/06 01:55:32;;;;;;;5.97;3.53;;;14.10;99.90;;;;;;5014918;28;20606;-58
2023/09/06 01:57:59;;;;;;;4.73;3.43;;;14.10;99.90;;;;;;5015461;28;20218;-57
2023/09/06 02:00:27;;;;;;;4.33;3.40;;;14.00;99.90;;;;;;5015396;28;20234;-57
2023/09/06 02:02:55;;;;;;;4.37;3.77;;;14.00;99.90;;;;;;5015069;28;20222;-59
2023/09/06 02:05:21;;;;;;;4.27;3.50;;;13.80;99.90;;;;;;5015861;28;20237;-58
2023/09/06 02:07:48;;;;;;;5.13;3.57;;;13.80;99.90;;;;;;5015726;28;20202;-60
2023/09/06 02:10:15;;;;;;;4.07;3.50;;;13.70;99.90;;;;;;5015835;28;20211;-58
2023/09/06 02:12:42;;;;;;;4.30;3.63;;;13.70;99.90;;;;;;5015078;28;20207;-58
2023/09/06 02:15:10;;;;;;;5.37;3.67;;;13.70;99.90;;;;;;5015321;28;20215;-59
2023/09/06 02:17:38;;;;;;;6.63;3.40;;;13.60;99.90;;;;;;5036416;23;20238;-62
2023/09/06 02:20:13;;;;;;;8.10;4.07;;;13.60;99.90;;;;;;5015299;28;20668;-61
2023/09/06 02:22:40;;;;;;;4.07;3.67;;;13.60;99.90;;;;;;5015208;28;20682;-61
2023/09/06 02:25:08;;;;;;;4.77;3.97;;;13.70;99.90;;;;;;5015446;28;20210;-62
2023/09/06 02:27:34;;;;;;;4.70;4.10;;;13.70;99.90;;;;;;5014858;28;20727;-63
2023/09/06 02:30:03;;;;;;;5.90;3.87;;;13.70;99.90;;;;;;5015256;28;20211;-61
2023/09/06 02:32:31;;;;;;;5.77;4.10;;;13.70;99.90;;;;;;5015112;28;20203;-62
2023/09/06 02:35:00;;;;;;;4.47;3.97;;;13.70;99.90;;;;;;5014844;28;20211;-62
2023/09/06 02:37:26;;;;;;;6.90;4.00;;;13.70;99.90;;;;;;5014593;28;20716;-62
2023/09/06 02:39:53;;;;;;;5.47;4.00;;;13.70;99.90;;;;;;5014956;28;20203;-60
2023/09/06 02:42:20;;;;;;;4.83;3.80;;;13.70;99.90;;;;;;5014724;28;20348;-62
2023/09/06 02:44:47;;;;;;;5.60;4.10;;;13.70;99.90;;;;;;5014724;28;20219;-60
2023/09/06 02:47:15;;;;;;;4.77;3.70;;;13.60;99.90;;;;;;5014553;28;20231;-60
2023/09/06 02:49:43;;;;;;;6.03;4.10;;;13.60;99.90;;;;;;5014442;28;20253;-60
2023/09/06 02:52:20;;;;;;;5.73;4.00;;;13.60;99.90;;;;;;5014652;28;20214;-60
2023/09/06 02:54:47;;;;;;;4.90;3.97;;;13.50;99.90;;;;;;5014551;28;20198;-61
2023/09/06 02:57:15;;;;;;;5.80;3.60;;;13.60;99.90;;;;;;5014040;28;20604;-60
2023/09/06 02:59:41;;;;;;;4.10;3.67;;;13.50;99.90;;;;;;5014342;28;20207;-60
2023/09/06 03:02:08;;;;;;;4.40;4.00;;;13.50;99.90;;;;;;5013120;28;20723;-61
2023/09/06 03:04:37;;;;;;;5.43;3.63;;;13.50;99.90;;;;;;5014207;28;20210;-60
2023/09/06 03:07:07;;;;;;;4.90;3.90;;;13.40;99.90;;;;;;5013771;28;20247;-61
2023/09/06 03:09:35;;;;;;;4.27;3.63;;;13.50;99.90;;;;;;5014333;28;20297;-61
2023/09/06 03:12:07;;;;;;;4.37;3.80;;;13.50;99.90;;;;;;5014001;28;20253;-61
2023/09/06 03:14:36;;;;;;;8.10;3.73;;;13.50;99.90;;;;;;5014027;28;20215;-61
2023/09/06 03:17:08;;;;;;;6.37;3.40;;;13.50;99.90;;;;;;5013928;28;20365;-61
2023/09/06 03:19:38;;;;;;;5.00;3.93;;;13.50;99.90;;;;;;5014276;28;20187;-61
2023/09/06 03:22:07;;;;;;;6.17;4.13;;;13.50;99.90;;;;;;5014198;28;20226;-61
2023/09/06 03:24:35;;;;;;;5.50;3.67;;;13.50;99.90;;;;;;5013968;28;20203;-60
2023/09/06 03:27:07;;;;;;;5.33;4.20;;;13.50;99.90;;;;;;5013945;28;20601;-61
2023/09/06 03:29:36;;;;;;;5.20;3.80;;;13.60;99.90;;;;;;5013763;28;20234;-62
2023/09/06 03:32:03;;;;;;;4.90;4.10;;;13.60;99.90;;;;;;5014278;28;20206;-61
2023/09/06 03:34:30;;;;;;;5.17;4.10;;;13.60;99.90;;;;;;5013807;28;20215;-61
2023/09/06 03:36:57;;;;;;;7.40;4.10;;;13.60;99.90;;;;;;5013652;28;20704;-61
2023/09/06 03:39:28;;;;;;;4.50;3.87;;;13.70;99.90;;;;;;5014089;28;20206;-60
2023/09/06 03:42:00;;;;;;;7.00;4.17;;;13.70;99.90;;;;;;5014065;28;20215;-60
2023/09/06 03:44:27;;;;;;;6.37;4.37;;;13.70;99.90;;;;;;5013745;28;20283;-61
2023/09/06 03:46:56;;;;;;;5.47;4.50;;;13.80;99.90;;;;;;4994100;28;20235;-62
2023/09/06 03:49:23;;;;;;;6.70;4.20;;;13.70;99.90;;;;;;5010915;28;20210;-61
2023/09/06 03:51:50;;;;;;;7.30;4.27;;;13.70;99.90;;;;;;5013794;28;20221;-62
2023/09/06 03:54:18;;;;;;;6.43;4.40;;;13.70;99.90;;;;;;5013592;28;20215;-61
2023/09/06 03:56:45;;;;;;;6.63;3.83;;;13.70;99.90;;;;;;5013166;28;20770;-61
2023/09/06 03:59:13;;;;;;;4.83;4.30;;;13.80;99.90;;;;;;5013092;28;20211;-61
2023/09/06 04:01:39;;;;;;;5.13;4.07;;;13.70;99.90;;;;;;5013355;28;20214;-61
2023/09/06 04:04:09;;;;;;;7.50;3.90;;;13.70;99.90;;;;;;5013586;28;20246;-61
2023/09/06 04:06:36;;;;;;;7.03;4.17;;;13.60;99.90;;;;;;5012923;28;20676;-61
2023/09/06 04:09:12;;;;;;;4.77;4.00;;;13.50;99.90;;;;;;5013003;28;20285;-63
2023/09/06 04:11:39;;;;;;;6.73;4.23;;;13.50;99.90;;;;;;5012897;28;20610;-60
2023/09/06 04:14:06;;;;;;;6.10;4.27;;;13.50;99.90;;;;;;5013075;28;20215;-60
2023/09/06 04:16:35;;;;;;;5.60;4.73;;;13.50;99.90;;;;;;5012571;28;20234;-61
2023/09/06 04:19:02;;;;;;;6.27;4.00;;;13.50;99.90;;;;;;5012890;28;20302;-61
2023/09/06 04:21:28;;;;;;;4.20;3.80;;;13.50;99.90;;;;;;5012413;28;20211;-61
2023/09/06 04:23:55;;;;;;;5.07;4.07;;;13.40;99.90;;;;;;5004732;28;20248;-61
2023/09/06 04:26:22;;;;;;;6.03;3.97;;;13.40;99.90;;;;;;5012137;28;20226;-61
2023/09/06 04:28:49;;;;;;;4.67;3.47;;;13.40;99.90;;;;;;5012954;28;20218;-61
2023/09/06 04:31:17;;;;;;;6.87;4.20;;;13.40;99.90;;;;;;5012569;28;20229;-61
2023/09/06 04:33:45;;;;;;;5.87;4.47;;;13.40;99.90;;;;;;5012319;28;20207;-61
2023/09/06 04:36:12;;;;;;;5.83;3.87;;;13.40;99.90;;;;;;5012146;28;20227;-61
2023/09/06 04:38:39;;;;;;;6.17;3.80;;;13.30;99.90;;;;;;5012048;28;20199;-60
2023/09/06 04:41:05;;;;;;;7.00;4.10;;;13.10;99.90;;;;;;5011753;28;20202;-62
2023/09/06 04:43:33;;;;;;;5.70;4.00;;;13.10;99.90;;;;;;5011705;28;20219;-61
2023/09/06 04:45:59;;;;;;;6.60;4.53;;;13.20;99.90;;;;;;5011858;28;20346;-62
2023/09/06 04:48:26;;;;;;;7.67;4.20;;;13.20;99.90;;;;;;5011889;28;20230;-62
2023/09/06 04:50:56;;;;;;;4.33;3.80;;;13.20;99.90;;;;;;5011597;28;20233;-60
2023/09/06 04:53:23;;;;;;;4.67;3.97;;;13.20;99.90;;;;;;5011763;28;20210;-61
2023/09/06 04:55:50;;;;;;;5.97;4.13;;;13.30;99.90;;;;;;5011753;28;20238;-62
2023/09/06 04:58:18;;;;;;;10.43;4.60;;;13.30;99.90;;;;;;5011719;28;20668;-61
2023/09/06 05:00:47;;;;;;;5.67;4.17;;;13.30;99.90;;;;;;5011875;28;20203;-61
2023/09/06 05:03:17;;;;;;;5.90;4.10;;;13.30;99.90;;;;;;5011360;28;20258;-61
2023/09/06 05:05:46;;;;;;;8.00;4.73;;;13.30;99.90;;;;;;5011547;28;20227;-62
2023/09/06 05:08:14;;;;;;;6.83;5.13;;;13.30;99.90;;;;;;5012356;28;20203;-61
2023/09/06 05:10:41;;;;;;;8.33;5.03;;;13.40;99.90;;;;;;5011942;28;20215;-61
2023/09/06 05:13:08;;;;;;;7.23;4.47;;;13.30;99.90;;;;;;5012017;28;20210;-61
2023/09/06 05:15:35;;;;;;;13.63;5.07;;;13.30;99.90;;;;;;5012349;28;20210;-62
2023/09/06 05:18:02;;;;;;;11.07;4.70;;;13.40;99.90;;;;;;5011622;28;20222;-62
2023/09/06 05:20:33;;;;;;;6.60;4.57;;;13.40;99.90;;;;;;5011174;28;20808;-62
2023/09/06 05:23:02;;;;;;;6.67;4.10;;;13.20;99.90;;;;;;5011454;28;20258;-62
2023/09/06 05:25:31;;;;;;;5.73;4.63;;;13.40;99.90;;;;;;5010628;28;20302;-62
2023/09/06 05:28:00;;;;;;;8.53;5.43;;;13.60;99.90;;;;;;5003941;28;20218;-61
2023/09/06 05:30:26;;;;;;;8.10;5.53;;;13.60;99.90;;;;;;5011397;28;20207;-62
2023/09/06 05:32:55;;;;;;;7.37;5.30;;;13.70;99.90;;;;;;5011384;28;20199;-61
2023/09/06 05:35:22;;;;;;;5.67;5.00;;;13.80;99.90;;;;;;5011387;28;20230;-62
2023/09/06 05:37:48;;;;;;;6.40;4.47;;;13.90;99.90;;;;;;5011087;28;20235;-62
2023/09/06 05:40:15;;;;;;;8.60;4.40;;;14.00;99.90;;;;;;5011427;28;20217;-62
2023/09/06 05:42:43;;;;;;;5.37;4.27;;;14.10;99.90;;;;;;5011242;28;20223;-62
2023/09/06 05:45:13;;;;;;;5.32;3.92;;;14.70;99.90;;;;;;5011062;28;20545;-61
2023/09/06 05:47:40;;;;;;;7.72;4.03;;;16.00;99.90;;;;;;5010995;28;20234;-62
2023/09/06 05:50:08;;;;;;;4.15;3.42;;;17.40;99.90;;;;;;5011021;28;20703;-62
2023/09/06 05:52:35;;;;;;;6.22;3.47;;;18.90;99.90;;;;;;5011323;28;20202;-62
2023/09/06 05:55:02;;;;;;;4.15;3.38;;;20.10;99.90;;;;;;5011630;28;20219;-62
2023/09/06 05:57:31;;;;;;;4.88;3.40;;;21.20;99.90;;;;;;5011418;28;20223;-63
2023/09/06 05:59:59;;;;;;;4.10;3.47;;;22.30;99.90;;;;;;5011189;28;20203;-62
2023/09/06 06:02:26;;;;;;;5.75;3.75;;;23.30;99.90;;;;;;5010888;28;20250;-62
2023/09/06 06:04:53;;;;;;;4.85;3.42;;;24.00;99.90;;;;;;5011636;28;20293;-62
2023/09/06 06:07:21;;;;;;;6.20;3.35;;;24.80;99.90;;;;;;5011476;28;20257;-63
2023/09/06 06:09:48;;;;;;;5.40;3.40;;;25.30;99.90;;;;;;5010929;28;20584;-62
2023/09/06 06:12:15;;;;;;;3.85;3.05;;;25.90;99.90;;;;;;5011522;28;20620;-63
2023/09/06 06:14:41;;;;;;;4.38;3.05;;;26.40;99.90;;;;;;5010937;28;20597;-63
2023/09/06 06:17:10;;;;;;;3.40;2.95;;;26.80;99.90;;;;;;5010829;28;20612;-62
2023/09/06 06:19:37;;;;;;;5.25;3.30;;;27.10;99.90;;;;;;5010848;28;20249;-63
2023/09/06 06:22:04;;;;;;;7.18;3.65;;;27.60;99.90;;;;;;5010908;28;20203;-63
2023/09/06 06:24:34;;;;;;;4.22;3.13;;;28.00;99.20;;;;;;5011095;28;20227;-62
2023/09/06 06:27:01;;;;;;;8.05;3.10;;;28.50;97.50;;;;;;5003050;28;20274;-66
2023/09/06 06:29:28;;;;;;;5.93;2.95;;;28.80;96.70;;;;;;5011212;28;20214;-63
2023/09/06 06:31:54;;;;;;;4.75;3.30;;;29.30;95.70;;;;;;5010482;28;20199;-63
2023/09/06 06:34:24;;;;;;;5.47;3.20;;;29.90;93.70;;;;;;5010950;28;20206;-63
2023/09/06 06:36:50;;;;;;;4.25;3.28;;;30.40;92.60;;;;;;5012360;28;20612;-64
2023/09/06 06:39:17;;;;;;;3.85;3.28;;;30.70;91.10;;;;;;5014700;28;20211;-63
2023/09/06 06:41:44;;;;;;;8.38;3.40;;;30.80;90.00;;;;;;5014728;28;20337;-63
2023/09/06 06:44:11;;;;;;;4.13;3.00;;;30.90;89.10;;;;;;5014701;28;20222;-63
2023/09/06 06:46:39;;;;;;;3.35;3.05;;;30.90;87.20;;;;;;5014520;28;20237;-63
2023/09/06 06:49:07;;;;;;;7.50;3.35;;;30.10;87.60;;;;;;5014147;28;20199;-61
2023/09/06 06:51:38;;;;;;;4.18;3.15;;;28.90;90.20;;;;;;5013398;28;20199;-60
2023/09/06 06:54:07;;;;;;;4.68;3.35;;;27.90;91.50;;;;;;5013978;28;20253;-60
2023/09/06 06:56:34;;;;;;;7.35;3.63;;;26.90;93.00;;;;;;5013715;28;20728;-60
2023/09/06 06:59:01;;;;;;;5.65;3.63;;;25.80;95.10;;;;;;5014168;28;20586;-60
2023/09/06 07:01:27;;;;;;;5.05;3.40;;;24.70;97.30;;;;;;5014116;28;20261;-61
2023/09/06 07:03:55;;;;;;;6.30;3.25;;;24.20;99.10;;;;;;5013709;28;20272;-60
2023/09/06 07:06:22;;;;;;;4.88;3.25;;;24.90;98.80;;;;;;5014232;28;20223;-60
2023/09/06 07:08:51;;;;;;;4.43;3.10;;;25.90;97.50;;;;;;5013508;28;20696;-61
2023/09/06 07:11:19;;;;;;;5.90;3.35;;;27.20;95.10;;;;;;5013793;28;20281;-61
2023/09/06 07:13:48;;;;;;;3.83;2.95;;;28.20;93.80;;;;;;5013604;28;20207;-61
2023/09/06 07:16:15;;;;;;;4.50;2.92;;;29.30;92.20;;;;;;5013481;28;20321;-61
2023/09/06 07:18:42;;;;;;;8.05;3.00;;;30.50;90.10;;;;;;5013102;28;20234;-62
2023/09/06 07:21:08;;;;;;;3.60;3.10;;;31.30;85.20;;;;;;5013255;28;20238;-62
2023/09/06 07:23:35;;;;;;;3.63;2.78;;;32.00;83.30;;;;;;5012846;28;20237;-61
2023/09/06 07:26:04;;;;;;;3.65;3.08;;;32.50;80.30;;;;;;5013251;28;20230;-61
2023/09/06 07:28:38;;;;;;;5.35;2.80;;;32.10;80.20;;;;;;5013397;28;20263;-62
2023/09/06 07:31:05;;;;;;;3.50;2.88;;;31.90;79.80;;;;;;5013096;28;20229;-62
2023/09/06 07:33:31;;;;;;;4.85;2.92;;;32.00;77.80;;;;;;5012814;28;20273;-61
2023/09/06 07:35:59;;;;;;;5.57;2.80;;;31.60;78.90;;;;;;5013251;28;20254;-61
2023/09/06 07:38:26;;;;;;;4.30;3.30;;;31.80;77.80;;;;;;5013452;28;20310;-62
2023/09/06 07:40:57;;;;;;;4.05;2.88;;;32.00;76.90;;;;;;5012955;28;20230;-61
2023/09/06 07:43:26;;;;;;;5.53;3.08;;;32.40;75.50;;;;;;5012741;28;20261;-60
2023/09/06 07:45:53;;;;;;;6.18;2.65;;;32.80;74.70;;;;;;5012711;28;20713;-61
2023/09/06 07:48:19;;;;;;;3.85;3.05;;;33.40;72.60;;;;;;5012668;28;20238;-61
2023/09/06 07:50:48;;;;;;;2.95;2.65;;;33.50;71.80;;;;;;5012983;28;20214;-61
2023/09/06 07:53:14;;;;;;;4.82;2.90;;;33.50;71.90;;;;;;5013230;28;20555;-64
2023/09/06 07:55:43;;;;;;;6.22;2.95;;;33.50;71.00;;;;;;5012943;28;20210;-63
2023/09/06 07:58:10;;;;;;;6.03;2.92;;;33.40;71.20;;;;;;5012985;28;20230;-63
2023/09/06 08:00:38;;;;;;;4.95;2.83;;;33.10;71.10;;;;;;5012697;28;20218;-65
2023/09/06 08:03:06;;;;;;;3.42;3.13;;;33.10;70.60;;;;;;5012365;28;20428;-60
2023/09/06 08:05:33;;;;;;;3.85;2.95;;;32.40;71.40;;;;;;5012457;28;20207;-63
2023/09/06 08:07:59;;;;;;;3.85;2.90;;;31.60;73.80;;;;;;5012844;28;20227;-63
2023/09/06 08:10:27;;;;;;;5.35;3.30;;;30.50;75.80;;;;;;5012405;28;20213;-63
2023/09/06 08:12:53;;;;;;;4.35;3.08;;;29.20;79.70;;;;;;5011846;28;20214;-63
2023/09/06 08:15:20;;;;;;;4.68;3.72;;;27.80;82.90;;;;;;5011992;28;20218;-63
2023/09/06 08:17:48;;;;;;;3.75;3.30;;;26.50;87.30;;;;;;5011986;28;20231;-62
2023/09/06 08:20:15;;;;;;;5.65;3.40;;;25.40;90.90;;;;;;5011703;28;20215;-62
2023/09/06 08:22:42;;;;;;;5.05;3.15;;;24.60;92.70;;;;;;5011555;28;20302;-62
2023/09/06 08:25:09;;;;;;;3.97;3.10;;;24.10;94.30;;;;;;5012051;28;20227;-62
2023/09/06 08:27:36;;;;;;;5.18;3.20;;;23.60;95.60;;;;;;5011812;28;20230;-64
2023/09/06 08:30:04;;;;;;;5.32;3.20;;;23.30;96.50;;;;;;5012156;28;20202;-62
2023/09/06 08:32:31;;;;;;;5.25;3.20;;;23.20;97.20;;;;;;5012027;28;20226;-62
2023/09/06 08:34:59;;;;;;;5.30;3.63;;;23.00;98.00;;;;;;5012164;28;20195;-62
2023/09/06 08:37:27;;;;;;;5.18;3.30;;;22.80;99.00;;;;;;5012081;28;20238;-62
2023/09/06 08:39:53;;;;;;;6.68;3.30;;;22.70;99.60;;;;;;5011890;28;20211;-62
2023/09/06 08:42:23;;;;;;;5.18;3.33;;;22.60;99.90;;;;;;5011273;28;20207;-62
2023/09/06 08:44:50;;;;;;;4.35;3.30;;;22.50;99.90;;;;;;5012001;28;20237;-64
2023/09/06 08:47:19;;;;;;;4.53;3.30;;;22.50;99.90;;;;;;5011923;28;20223;-63
2023/09/06 08:49:47;;;;;;;6.43;3.20;;;22.50;99.90;;;;;;5011886;28;20237;-63
2023/09/06 08:52:17;;;;;;;4.78;3.60;;;22.60;99.90;;;;;;5011313;28;20211;-62
2023/09/06 08:54:45;;;;;;;5.10;3.70;;;22.60;99.90;;;;;;5011467;28;20206;-62
2023/09/06 08:57:13;;;;;;;8.40;3.78;;;22.60;99.90;;;;;;5011294;28;20712;-66
2023/09/06 08:59:40;;;;;;;5.95;3.35;;;22.60;99.90;;;;;;5011061;28;20214;-66
2023/09/06 09:02:10;;;;;;;5.05;3.25;;;22.60;99.90;;;;;;5011209;28;20199;-65
2023/09/06 09:04:40;;;;;;;6.60;3.33;;;22.70;99.90;;;;;;5011419;28;20235;-65
2023/09/06 09:07:08;;;;;;;6.63;3.45;;;22.70;99.90;;;;;;5011367;28;20314;-65
2023/09/06 09:09:55;;;;;;;6.13;3.40;;;22.80;99.90;;;;;;5011267;28;20203;-65
2023/09/06 09:12:24;;;;;;;5.63;3.20;;;22.90;99.90;;;;;;5011197;28;20217;-65
2023/09/06 09:14:51;;;;;;;5.25;3.47;;;23.00;99.90;;;;;;5011589;28;20635;-66
2023/09/06 09:17:21;;;;;;;5.15;3.40;;;23.10;99.90;;;;;;5011337;28;20230;-65
2023/09/06 09:19:49;;;;;;;5.35;3.38;;;23.10;99.90;;;;;;5010896;28;20264;-66
2023/09/06 09:22:16;;;;;;;5.22;3.10;;;23.30;99.90;;;;;;5011264;28;20238;-65
2023/09/06 09:24:44;;;;;;;5.55;3.50;;;23.50;99.90;;;;;;5011028;28;20716;-65
2023/09/06 09:27:11;;;;;;;4.03;3.20;;;23.60;99.90;;;;;;5011050;28;20245;-65
2023/09/06 09:29:39;;;;;;;5.25;3.60;;;23.70;99.90;;;;;;5011029;28;20211;-65
2023/09/06 09:32:06;;;;;;;5.57;3.60;;;23.80;99.90;;;;;;5010927;28;20286;-65
2023/09/06 09:34:33;;;;;;;4.28;3.45;;;23.80;99.90;;;;;;5011109;28;20258;-65
2023/09/06 09:37:02;;;;;;;3.28;2.97;;;23.90;99.90;;;;;;5010475;28;20229;-65
2023/09/06 09:39:29;;;;;;;5.20;3.55;;;24.00;99.90;;;;;;5010888;28;20203;-65
2023/09/06 09:41:59;;;;;;;5.15;3.63;;;24.10;99.90;;;;;;5010507;28;20203;-62
2023/09/06 09:44:26;;;;;;;8.93;3.40;;;24.20;99.90;;;;;;5011232;28;20226;-65
2023/09/06 09:46:57;;;;;;;5.57;3.50;;;24.30;99.90;;;;;;5010861;28;20229;-64
2023/09/06 09:49:25;;;;;;;4.25;3.25;;;24.40;99.90;;;;;;5011017;28;20211;-64
2023/09/06 09:51:52;;;;;;;4.00;3.10;;;24.60;99.90;;;;;;5010716;28;20206;-64
2023/09/06 09:54:21;;;;;;;11.63;3.83;;;24.70;99.90;;;;;;5010978;28;20219;-64
2023/09/06 09:56:59;;;;;;;4.28;3.70;;;25.10;99.90;;;;;;5010501;28;20226;-64
2023/09/06 09:59:27;;;;;;;4.65;3.60;;;24.90;99.90;;;;;;5010993;28;20207;-64
2023/09/06 10:01:57;;;;;;;4.82;3.70;;;25.00;99.90;;;;;;5010412;28;20215;-64
2023/09/06 10:04:27;;;;;;;7.05;4.00;;;25.30;99.90;;;;;;5010383;28;20254;-65
2023/09/06 10:06:54;;;;;;;5.32;4.18;;;25.20;99.90;;;;;;5010439;28;20230;-64
2023/09/06 10:09:22;;;;;;;7.05;4.05;;;25.20;99.90;;;;;;5011098;28;20673;-64
2023/09/06 10:11:51;;;;;;;5.32;3.83;;;25.20;99.90;;;;;;5013743;28;20218;-64
2023/09/06 10:14:22;;;;;;;6.63;3.50;;;25.40;99.90;;;;;;5007753;28;20239;-64
2023/09/06 10:16:52;;;;;;;5.55;3.47;;;25.50;99.90;;;;;;5014688;28;20329;-64
2023/09/06 10:19:20;;;;;;;3.63;3.30;;;25.60;99.90;;;;;;5015336;28;20199;-64
2023/09/06 10:21:48;;;;;;;7.55;3.50;;;25.60;99.90;;;;;;5014694;28;20215;-64
2023/09/06 10:24:19;;;;;;;6.50;3.70;;;25.70;99.90;;;;;;5014879;28;20243;-66
2023/09/06 10:26:47;;;;;;;8.77;4.03;;;25.70;99.90;;;;;;5014383;28;20273;-66
2023/09/06 10:29:19;;;;;;;4.15;3.50;;;25.70;99.90;;;;;;5014366;28;20210;-66
2023/09/06 10:31:52;;;;;;;3.70;3.03;;;25.60;99.90;;;;;;5014124;28;20399;-66
2023/09/06 10:34:20;;;;;;;4.32;3.80;;;25.70;99.90;;;;;;5014360;28;20249;-68
2023/09/06 10:36:51;;;;;;;5.85;3.28;;;25.70;99.90;;;;;;5014398;28;20742;-67
2023/09/06 10:39:21;;;;;;;5.15;3.30;;;25.80;99.90;;;;;;5014444;28;20206;-65
2023/09/06 10:42:24;;;;;;;3.78;3.38;;;25.80;99.90;;;;;;5014102;28;20548;-67
2023/09/06 10:45:15;;;;;;;5.05;3.17;;;25.80;99.90;;;;;;5014300;28;20258;-66
2023/09/06 10:47:43;;;;;;;4.50;3.60;;;25.90;99.90;;;;;;4998949;28;20286;-65
2023/09/06 10:50:17;;;;;;;3.70;3.22;;;26.00;99.90;;;;;;5014485;28;20264;-66
2023/09/06 10:52:50;;;;;;;4.90;3.30;;;26.20;99.90;;;;;;5014651;28;20206;-67
2023/09/06 10:55:20;;;;;;;4.68;3.33;;;26.40;99.90;;;;;;5014420;28;20325;-66
2023/09/06 10:57:49;;;;;;;3.90;3.50;;;26.70;99.90;;;;;;5014096;28;20297;-65
2023/09/06 11:00:19;;;;;;;4.30;3.42;;;26.80;99.90;;;;;;5014017;28;20211;-65
2023/09/06 11:03:14;;;;;;;3.75;3.35;;;26.80;99.90;;;;;;5014045;28;20348;-65
2023/09/06 11:05:43;;;;;;;4.30;3.60;;;26.80;99.90;;;;;;5015038;28;20259;-68
2023/09/06 11:08:21;;;;;;;7.13;3.63;;;26.90;99.90;;;;;;5015658;28;20213;-64
2023/09/06 11:10:48;;;;;;;4.53;3.50;;;27.00;99.90;;;;;;5033229;28;20226;-67
2023/09/06 11:13:15;;;;;;;6.20;3.50;;;27.10;99.90;;;;;;5032956;28;20210;-65
2023/09/06 11:15:43;;;;;;;4.43;3.47;;;27.10;99.90;;;;;;5032764;28;20640;-64
2023/09/06 11:18:11;;;;;;;4.72;3.70;;;27.20;99.90;;;;;;5032832;28;20241;-64
2023/09/06 11:20:39;;;;;;;4.55;3.60;;;27.20;99.90;;;;;;5032539;28;20652;-64
2023/09/06 11:23:06;;;;;;;5.78;3.42;;;27.30;99.90;;;;;;5031538;28;20234;-64
2023/09/06 11:25:33;;;;;;;4.78;3.15;;;27.30;99.90;;;;;;5032601;28;20222;-64
2023/09/06 11:28:02;;;;;;;4.25;3.13;;;27.30;99.90;;;;;;5032552;28;20247;-67
2023/09/06 11:30:32;;;;;;;5.75;3.00;;;27.30;99.90;;;;;;5032422;28;20210;-67
2023/09/06 11:32:59;;;;;;;4.70;3.55;;;27.40;99.90;;;;;;5031932;28;20210;-68
2023/09/06 11:35:32;;;;;;;3.90;3.50;;;27.50;99.90;;;;;;5032601;28;20248;-67
2023/09/06 11:38:00;;;;;;;3.50;3.13;;;27.50;99.90;;;;;;5032550;28;20252;-65
2023/09/06 11:40:31;;;;;;;3.83;3.33;;;27.60;99.90;;;;;;5032036;28;20207;-66
2023/09/06 11:43:02;;;;;;;3.97;3.58;;;27.60;99.90;;;;;;5017739;28;20242;-66
2023/09/06 11:45:31;;;;;;;5.70;3.30;;;27.70;99.90;;;;;;5010506;28;20226;-67
2023/09/06 11:48:04;;;;;;;4.13;3.33;;;27.70;99.90;;;;;;4996331;28;20208;-65
2023/09/06 11:50:34;;;;;;;3.58;3.00;;;27.90;99.00;;;;;;5012055;28;20241;-64
2023/09/06 11:53:04;;;;;;;3.33;3.03;;;28.10;96.70;;;;;;5011948;28;20211;-65
2023/09/06 11:55:33;;;;;;;4.00;2.88;;;28.20;95.90;;;;;;5012288;28;20217;-64
2023/09/06 11:58:00;;;;;;;3.72;2.85;;;28.30;95.60;;;;;;5011791;28;20665;-66
2023/09/06 12:00:38;;;;;;;7.05;6.28;;;28.40;95.20;;;;;;5011615;28;20214;-65
2023/09/06 12:03:13;;;;;;;3.92;2.80;;;28.50;94.70;;;;;;5011173;28;20751;-65
2023/09/06 12:05:43;;;;;;;3.85;2.90;;;28.60;94.00;;;;;;5011770;28;20230;-65
2023/09/06 12:08:13;;;;;;;3.00;2.70;;;28.70;93.00;;;;;;5003695;28;20213;-65
2023/09/06 12:10:40;;;;;;;4.07;2.70;;;28.80;92.90;;;;;;5011822;28;20214;-66
2023/09/06 12:13:07;;;;;;;6.40;2.75;;;28.80;93.00;;;;;;5011734;28;20222;-65
2023/09/06 12:15:34;;;;;;;5.05;2.60;;;28.90;92.00;;;;;;5010816;28;20245;-67
2023/09/06 12:18:04;;;;;;;4.13;2.70;;;28.90;92.30;;;;;;5010331;28;20214;-66
2023/09/06 12:20:34;;;;;;;4.88;3.03;;;29.10;92.70;;;;;;5011737;28;20294;-65
2023/09/06 12:23:04;;;;;;;4.93;2.80;;;29.10;92.60;;;;;;5010961;28;20211;-65
2023/09/06 12:25:30;;;;;;;4.55;2.83;;;29.30;92.00;;;;;;5011199;28;20317;-64
2023/09/06 12:27:57;;;;;;;3.17;2.80;;;29.20;91.80;;;;;;5011116;28;20265;-64
2023/09/06 12:30:24;;;;;;;5.97;2.95;;;29.20;91.60;;;;;;5011359;28;20230;-66
2023/09/06 12:32:51;;;;;;;3.35;2.67;;;29.30;91.30;;;;;;5010677;28;20203;-65
2023/09/06 12:35:17;;;;;;;4.03;2.90;;;29.40;91.50;;;;;;5010442;28;20298;-64
2023/09/06 12:37:45;;;;;;;3.08;2.45;;;29.30;91.80;;;;;;5010847;28;20237;-64
2023/09/06 12:40:13;;;;;;;4.03;2.95;;;29.30;91.70;;;;;;5011006;28;20555;-64
2023/09/06 12:42:43;;;;;;;5.20;3.15;;;29.40;91.60;;;;;;5010740;28;20675;-64
2023/09/06 12:45:18;;;;;;;3.58;2.55;;;29.60;91.30;;;;;;5011066;28;20288;-64
2023/09/06 12:47:45;;;;;;;3.13;2.83;;;29.70;90.40;;;;;;5010878;28;20238;-64
2023/09/06 12:50:11;;;;;;;4.15;2.58;;;29.70;90.20;;;;;;5010914;28;20326;-64
2023/09/06 12:52:38;;;;;;;3.20;2.90;;;29.70;90.50;;;;;;5010352;28;20215;-63